LGKZ/KZI METAR and TAF weather

Enter ICAO airport designator
Station Type Date Time Source
LGKZ METAR 2024/04/18 05:50 UTC NOAA

LGKZ 180550Z 01004KT 9999 FEW025 12/03 Q1004


Station Type Date Time Source
LGKZ Decoded METAR 2024/04/18 05:50 UTC NOAA

Kozani Airport , Greece (LGKZ) 40-18N 021-47E 627M
Apr 18, 2024 - 01:50 AM EDT / 2024.04.18 0550 UTC
Wind: from the N (010 degrees) at 5 MPH (4 KT):0
Visibility: greater than 7 mile(s):0
Sky conditions: mostly clear
Temperature: 53 F (12 C)
Dew Point: 37 F (3 C)
Relative Humidity: 54%
Pressure (altimeter): 29.65 in. Hg (1004 hPa)
ob: LGKZ 180550Z 01004KT 9999 FEW025 12/03 Q1004
cycle: 6

Station Type Date Time Source
LGKZ TAF UTC NOAA

Error!

Example: see airport list